sensor_id;sensor_type;location;lat;lon;timestamp;pressure;altitude;pressure_sealevel;temperature;humidity
56456;BME280;42354;53.218;6.564;2023-02-13T00:00:53;46981.13;;;-142.92;71.46
56456;BME280;42354;53.218;6.564;2023-02-13T00:03:18;46993.44;;;-142.92;71.34
56456;BME280;42354;53.218;6.564;2023-02-13T00:05:45;47009.84;;;-142.92;71.36
56456;BME280;42354;53.218;6.564;2023-02-13T00:08:10;47003.69;;;-142.92;71.21
56456;BME280;42354;53.218;6.564;2023-02-13T00:10:36;46995.50;;;-142.92;71.39
56456;BME280;42354;53.218;6.564;2023-02-13T00:13:01;47020.13;;;-142.92;71.37
56456;BME280;42354;53.218;6.564;2023-02-13T00:15:27;46999.59;;;-142.92;71.31
56456;BME280;42354;53.218;6.564;2023-02-13T00:17:52;47003.69;;;-142.92;71.34
56456;BME280;42354;53.218;6.564;2023-02-13T00:20:17;46999.59;;;-142.92;70.97
56456;BME280;42354;53.218;6.564;2023-02-13T00:22:43;47022.16;;;-142.92;71.06
56456;BME280;42354;53.218;6.564;2023-02-13T00:25:08;47016.00;;;-142.92;70.90
56456;BME280;42354;53.218;6.564;2023-02-13T00:27:34;47011.91;;;-142.92;71.01
56456;BME280;42354;53.218;6.564;2023-02-13T00:29:59;47005.75;;;-142.92;70.92
56456;BME280;42354;53.218;6.564;2023-02-13T00:32:25;47016.00;;;-142.92;70.63
56456;BME280;42354;53.218;6.564;2023-02-13T00:34:50;47009.84;;;-142.92;70.37
56456;BME280;42354;53.218;6.564;2023-02-13T00:37:15;47007.81;;;-142.92;70.36
56456;BME280;42354;53.218;6.564;2023-02-13T00:39:41;46974.97;;;-142.92;70.12
56456;BME280;42354;53.218;6.564;2023-02-13T00:42:06;47024.22;;;-142.92;70.30
56456;BME280;42354;53.218;6.564;2023-02-13T00:44:32;46997.53;;;-142.92;70.38
56456;BME280;42354;53.218;6.564;2023-02-13T00:46:57;46997.53;;;-142.92;70.38
56456;BME280;42354;53.218;6.564;2023-02-13T00:49:23;47003.69;;;-142.92;70.37
56456;BME280;42354;53.218;6.564;2023-02-13T00:51:48;47003.69;;;-142.92;70.22
56456;BME280;42354;53.218;6.564;2023-02-13T00:54:13;47005.75;;;-142.92;70.37
56456;BME280;42354;53.218;6.564;2023-02-13T00:56:39;46995.50;;;-142.92;70.58
56456;BME280;42354;53.218;6.564;2023-02-13T00:59:04;47016.00;;;-142.92;70.42
56456;BME280;42354;53.218;6.564;2023-02-13T01:01:30;47024.22;;;-142.92;70.22
56456;BME280;42354;53.218;6.564;2023-02-13T01:03:55;47003.69;;;-142.92;70.20
56456;BME280;42354;53.218;6.564;2023-02-13T01:06:20;47007.81;;;-142.92;70.14
56456;BME280;42354;53.218;6.564;2023-02-13T01:08:46;46999.59;;;-142.92;70.20
56456;BME280;42354;53.218;6.564;2023-02-13T01:11:11;47016.00;;;-142.92;70.07
56456;BME280;42354;53.218;6.564;2023-02-13T01:13:37;46989.34;;;-142.92;70.12
56456;BME280;42354;53.218;6.564;2023-02-13T01:16:02;47003.69;;;-142.92;70.09
56456;BME280;42354;53.218;6.564;2023-02-13T01:18:28;47005.75;;;-142.92;70.27
56456;BME280;42354;53.218;6.564;2023-02-13T01:21:05;47020.13;;;-142.92;70.08
56456;BME280;42354;53.218;6.564;2023-02-13T01:23:33;47009.84;;;-142.92;70.46
56456;BME280;42354;53.218;6.564;2023-02-13T01:25:59;46993.44;;;-142.92;70.58
56456;BME280;42354;53.218;6.564;2023-02-13T01:28:25;47001.66;;;-142.92;70.49
56456;BME280;42354;53.218;6.564;2023-02-13T01:30:53;47001.66;;;-142.92;70.32
56456;BME280;42354;53.218;6.564;2023-02-13T01:33:18;46989.34;;;-142.92;70.57
56456;BME280;42354;53.218;6.564;2023-02-13T01:35:44;47011.91;;;-142.92;70.60
56456;BME280;42354;53.218;6.564;2023-02-13T01:38:09;46999.59;;;-142.92;70.66
56456;BME280;42354;53.218;6.564;2023-02-13T01:40:34;46991.38;;;-142.92;70.60
56456;BME280;42354;53.218;6.564;2023-02-13T01:43:00;47001.66;;;-142.92;70.54
56456;BME280;42354;53.218;6.564;2023-02-13T01:45:29;46991.38;;;-142.92;70.49
56456;BME280;42354;53.218;6.564;2023-02-13T01:48:07;47028.31;;;-142.92;70.29
56456;BME280;42354;53.218;6.564;2023-02-13T01:50:40;46999.59;;;-142.92;70.24
56456;BME280;42354;53.218;6.564;2023-02-13T01:53:25;47001.66;;;-142.92;70.12
56456;BME280;42354;53.218;6.564;2023-02-13T01:55:58;46987.28;;;-142.92;70.08
56456;BME280;42354;53.218;6.564;2023-02-13T01:58:29;46991.38;;;-142.92;69.86
56456;BME280;42354;53.218;6.564;2023-02-13T02:00:57;46989.34;;;-142.92;69.84
56456;BME280;42354;53.218;6.564;2023-02-13T02:05:58;47003.69;;;-142.92;70.45
56456;BME280;42354;53.218;6.564;2023-02-13T02:08:25;46995.50;;;-142.92;70.42
56456;BME280;42354;53.218;6.564;2023-02-13T02:10:51;47003.69;;;-142.92;70.45
56456;BME280;42354;53.218;6.564;2023-02-13T02:13:19;46999.59;;;-142.92;70.31
56456;BME280;42354;53.218;6.564;2023-02-13T02:15:47;47026.28;;;-142.92;70.33
56456;BME280;42354;53.218;6.564;2023-02-13T02:18:15;47003.69;;;-142.92;70.62
56456;BME280;42354;53.218;6.564;2023-02-13T02:21:14;47013.97;;;-142.92;70.55
56456;BME280;42354;53.218;6.564;2023-02-13T02:24:06;47005.75;;;-142.92;70.86
56456;BME280;42354;53.218;6.564;2023-02-13T02:27:09;47022.16;;;-142.92;70.85
56456;BME280;42354;53.218;6.564;2023-02-13T02:34:55;46981.13;;;-142.92;71.08
56456;BME280;42354;53.218;6.564;2023-02-13T02:40:35;47034.47;;;-142.92;70.89
56456;BME280;42354;53.218;6.564;2023-02-13T02:43:24;47003.69;;;-142.92;71.06
56456;BME280;42354;53.218;6.564;2023-02-13T02:46:21;47007.81;;;-142.92;70.56
56456;BME280;42354;53.218;6.564;2023-02-13T02:49:05;47040.63;;;-142.92;70.33
56456;BME280;42354;53.218;6.564;2023-02-13T02:52:07;47020.13;;;-142.92;70.46
56456;BME280;42354;53.218;6.564;2023-02-13T02:57:30;47013.97;;;-142.92;70.58
56456;BME280;42354;53.218;6.564;2023-02-13T03:00:18;47007.81;;;-142.92;70.56
56456;BME280;42354;53.218;6.564;2023-02-13T03:03:30;47016.00;;;-142.92;70.14
56456;BME280;42354;53.218;6.564;2023-02-13T03:06:18;47011.91;;;-142.92;70.13
56456;BME280;42354;53.218;6.564;2023-02-13T03:08:53;46993.44;;;-142.92;69.78
56456;BME280;42354;53.218;6.564;2023-02-13T03:11:38;46995.50;;;-142.92;69.85
56456;BME280;42354;53.218;6.564;2023-02-13T03:14:25;46987.28;;;-142.92;69.90
56456;BME280;42354;53.218;6.564;2023-02-13T03:16:52;47007.81;;;-142.92;69.63
56456;BME280;42354;53.218;6.564;2023-02-13T03:19:45;46999.59;;;-142.92;69.41
56456;BME280;42354;53.218;6.564;2023-02-13T03:25:21;47011.91;;;-142.92;69.25
56456;BME280;42354;53.218;6.564;2023-02-13T03:36:10;46995.50;;;-142.92;68.85
56456;BME280;42354;53.218;6.564;2023-02-13T03:41:54;46999.59;;;-142.92;68.31
56456;BME280;42354;53.218;6.564;2023-02-13T03:46:54;47011.91;;;-142.92;68.61
56456;BME280;42354;53.218;6.564;2023-02-13T03:49:25;46999.59;;;-142.92;68.69
56456;BME280;42354;53.218;6.564;2023-02-13T03:54:57;47001.66;;;-142.92;68.66
56456;BME280;42354;53.218;6.564;2023-02-13T03:57:44;47001.66;;;-142.92;68.88
56456;BME280;42354;53.218;6.564;2023-02-13T04:00:36;47011.91;;;-142.92;68.55
56456;BME280;42354;53.218;6.564;2023-02-13T04:03:12;47026.28;;;-142.92;68.59
56456;BME280;42354;53.218;6.564;2023-02-13T04:05:41;46991.38;;;-142.92;68.58
56456;BME280;42354;53.218;6.564;2023-02-13T04:08:08;46999.59;;;-142.92;68.72
56456;BME280;42354;53.218;6.564;2023-02-13T04:10:36;46995.50;;;-142.92;68.44
56456;BME280;42354;53.218;6.564;2023-02-13T04:13:16;47007.81;;;-142.92;68.33
56456;BME280;42354;53.218;6.564;2023-02-13T04:15:50;47003.69;;;-142.92;68.22
56456;BME280;42354;53.218;6.564;2023-02-13T04:18:20;47013.97;;;-142.92;68.05
56456;BME280;42354;53.218;6.564;2023-02-13T04:20:46;47009.84;;;-142.92;68.36
56456;BME280;42354;53.218;6.564;2023-02-13T04:23:12;46999.59;;;-142.92;68.26
56456;BME280;42354;53.218;6.564;2023-02-13T04:25:39;46989.34;;;-142.92;68.05
56456;BME280;42354;53.218;6.564;2023-02-13T04:28:05;46995.50;;;-142.92;68.23
56456;BME280;42354;53.218;6.564;2023-02-13T04:30:30;46989.34;;;-142.92;68.14
56456;BME280;42354;53.218;6.564;2023-02-13T04:32:58;47009.84;;;-142.92;68.18
56456;BME280;42354;53.218;6.564;2023-02-13T04:35:23;47018.06;;;-142.92;68.23
56456;BME280;42354;53.218;6.564;2023-02-13T04:37:48;46995.50;;;-142.92;68.23
56456;BME280;42354;53.218;6.564;2023-02-13T04:40:14;47003.69;;;-142.92;68.25
56456;BME280;42354;53.218;6.564;2023-02-13T04:42:39;47016.00;;;-142.92;68.20
56456;BME280;42354;53.218;6.564;2023-02-13T04:45:05;47020.13;;;-142.92;68.22
56456;BME280;42354;53.218;6.564;2023-02-13T04:47:30;47001.66;;;-142.92;68.19
56456;BME280;42354;53.218;6.564;2023-02-13T04:49:56;47028.31;;;-142.92;68.45
56456;BME280;42354;53.218;6.564;2023-02-13T04:52:21;47016.00;;;-142.92;68.11
56456;BME280;42354;53.218;6.564;2023-02-13T04:54:46;47007.81;;;-142.92;68.34
56456;BME280;42354;53.218;6.564;2023-02-13T04:57:12;47018.06;;;-142.92;68.37
56456;BME280;42354;53.218;6.564;2023-02-13T04:59:37;46987.28;;;-142.92;68.29
56456;BME280;42354;53.218;6.564;2023-02-13T05:02:02;46995.50;;;-142.92;68.35
56456;BME280;42354;53.218;6.564;2023-02-13T05:04:28;46987.28;;;-142.92;68.25
56456;BME280;42354;53.218;6.564;2023-02-13T05:06:53;47013.97;;;-142.92;68.27
56456;BME280;42354;53.218;6.564;2023-02-13T05:09:19;46991.38;;;-142.92;68.29
56456;BME280;42354;53.218;6.564;2023-02-13T05:11:45;47003.69;;;-142.92;68.13
56456;BME280;42354;53.218;6.564;2023-02-13T05:14:10;47005.75;;;-142.92;68.33
56456;BME280;42354;53.218;6.564;2023-02-13T05:16:35;47007.81;;;-142.92;68.31
56456;BME280;42354;53.218;6.564;2023-02-13T05:19:01;46987.28;;;-142.92;68.55
56456;BME280;42354;53.218;6.564;2023-02-13T05:21:27;46999.59;;;-142.92;68.49
56456;BME280;42354;53.218;6.564;2023-02-13T05:24:11;46987.28;;;-142.92;68.42
56456;BME280;42354;53.218;6.564;2023-02-13T05:26:36;47013.97;;;-142.92;68.36
56456;BME280;42354;53.218;6.564;2023-02-13T05:29:01;46995.50;;;-142.92;68.41
56456;BME280;42354;53.218;6.564;2023-02-13T05:31:56;46999.59;;;-142.92;68.16
56456;BME280;42354;53.218;6.564;2023-02-13T05:34:24;47013.97;;;-142.92;68.49
56456;BME280;42354;53.218;6.564;2023-02-13T05:36:49;46999.59;;;-142.92;68.25
56456;BME280;42354;53.218;6.564;2023-02-13T05:39:15;47016.00;;;-142.92;68.49
56456;BME280;42354;53.218;6.564;2023-02-13T05:41:42;46995.50;;;-142.92;68.50
56456;BME280;42354;53.218;6.564;2023-02-13T05:44:07;47011.91;;;-142.92;68.69
56456;BME280;42354;53.218;6.564;2023-02-13T05:46:33;47024.22;;;-142.92;68.77
56456;BME280;42354;53.218;6.564;2023-02-13T05:48:59;47007.81;;;-142.92;68.98
56456;BME280;42354;53.218;6.564;2023-02-13T05:51:24;46997.53;;;-142.92;68.95
56456;BME280;42354;53.218;6.564;2023-02-13T05:53:49;47022.16;;;-142.92;68.99
56456;BME280;42354;53.218;6.564;2023-02-13T05:56:15;47003.69;;;-142.92;69.28
56456;BME280;42354;53.218;6.564;2023-02-13T05:58:40;46993.44;;;-142.92;69.28
56456;BME280;42354;53.218;6.564;2023-02-13T06:01:05;47020.13;;;-142.92;69.26
56456;BME280;42354;53.218;6.564;2023-02-13T06:03:31;47001.66;;;-142.92;69.36
56456;BME280;42354;53.218;6.564;2023-02-13T06:05:58;47001.66;;;-142.92;69.32
56456;BME280;42354;53.218;6.564;2023-02-13T06:08:24;47024.22;;;-142.92;69.34
56456;BME280;42354;53.218;6.564;2023-02-13T06:10:49;47007.81;;;-142.92;69.50
56456;BME280;42354;53.218;6.564;2023-02-13T06:13:15;46991.38;;;-142.92;69.32
56456;BME280;42354;53.218;6.564;2023-02-13T06:15:41;46991.38;;;-142.92;69.35
56456;BME280;42354;53.218;6.564;2023-02-13T06:18:07;46993.44;;;-142.92;69.48
56456;BME280;42354;53.218;6.564;2023-02-13T06:20:33;47016.00;;;-142.92;69.56
56456;BME280;42354;53.218;6.564;2023-02-13T06:22:58;47009.84;;;-142.92;69.50
56456;BME280;42354;53.218;6.564;2023-02-13T06:25:24;46985.22;;;-142.92;69.63
56456;BME280;42354;53.218;6.564;2023-02-13T06:27:49;47026.28;;;-142.92;69.58
56456;BME280;42354;53.218;6.564;2023-02-13T06:30:16;47011.91;;;-142.92;69.42
56456;BME280;42354;53.218;6.564;2023-02-13T06:32:42;47007.81;;;-142.92;69.51
56456;BME280;42354;53.218;6.564;2023-02-13T06:35:08;46995.50;;;-142.92;69.36
56456;BME280;42354;53.218;6.564;2023-02-13T06:37:34;47007.81;;;-142.92;69.39
56456;BME280;42354;53.218;6.564;2023-02-13T06:39:59;47005.75;;;-142.92;69.57
56456;BME280;42354;53.218;6.564;2023-02-13T06:42:25;46999.59;;;-142.92;69.66
56456;BME280;42354;53.218;6.564;2023-02-13T06:44:50;46999.59;;;-142.92;69.42
56456;BME280;42354;53.218;6.564;2023-02-13T06:47:16;46989.34;;;-142.92;69.32
56456;BME280;42354;53.218;6.564;2023-02-13T06:49:41;47003.69;;;-142.92;69.50
56456;BME280;42354;53.218;6.564;2023-02-13T06:52:06;46991.38;;;-142.92;69.56
56456;BME280;42354;53.218;6.564;2023-02-13T06:54:32;47026.28;;;-142.92;69.55
56456;BME280;42354;53.218;6.564;2023-02-13T06:56:57;46987.28;;;-142.92;69.54
56456;BME280;42354;53.218;6.564;2023-02-13T06:59:23;47001.66;;;-142.92;69.48
56456;BME280;42354;53.218;6.564;2023-02-13T07:01:48;47007.81;;;-142.92;69.65
56456;BME280;42354;53.218;6.564;2023-02-13T07:04:13;46999.59;;;-142.92;69.67
56456;BME280;42354;53.218;6.564;2023-02-13T07:06:39;47018.06;;;-142.92;69.72
56456;BME280;42354;53.218;6.564;2023-02-13T07:09:04;46983.19;;;-142.92;69.67
56456;BME280;42354;53.218;6.564;2023-02-13T07:11:29;47020.13;;;-142.92;69.85
56456;BME280;42354;53.218;6.564;2023-02-13T07:13:55;47005.75;;;-142.92;69.83
56456;BME280;42354;53.218;6.564;2023-02-13T07:16:20;47013.97;;;-142.92;70.00
56456;BME280;42354;53.218;6.564;2023-02-13T07:18:46;47030.38;;;-142.92;69.90
56456;BME280;42354;53.218;6.564;2023-02-13T07:21:11;47009.84;;;-142.92;70.02
56456;BME280;42354;53.218;6.564;2023-02-13T07:23:36;46995.50;;;-142.92;70.07
56456;BME280;42354;53.218;6.564;2023-02-13T07:26:02;47007.81;;;-142.92;70.20
56456;BME280;42354;53.218;6.564;2023-02-13T07:28:28;47007.81;;;-142.92;70.13
56456;BME280;42354;53.218;6.564;2023-02-13T07:30:54;47013.97;;;-142.92;70.20
56456;BME280;42354;53.218;6.564;2023-02-13T07:33:19;46983.19;;;-142.92;70.30
56456;BME280;42354;53.218;6.564;2023-02-13T07:35:49;47001.66;;;-142.92;69.99
56456;BME280;42354;53.218;6.564;2023-02-13T07:38:16;47016.00;;;-142.92;69.95
56456;BME280;42354;53.218;6.564;2023-02-13T07:40:41;47001.66;;;-142.92;69.99
56456;BME280;42354;53.218;6.564;2023-02-13T07:43:07;47011.91;;;-142.92;70.00
56456;BME280;42354;53.218;6.564;2023-02-13T07:45:32;47016.00;;;-142.92;69.94
56456;BME280;42354;53.218;6.564;2023-02-13T07:47:58;47007.81;;;-142.92;69.58
56456;BME280;42354;53.218;6.564;2023-02-13T07:50:24;46997.53;;;-142.92;69.58
56456;BME280;42354;53.218;6.564;2023-02-13T07:52:58;47011.91;;;-142.92;69.31
56456;BME280;42354;53.218;6.564;2023-02-13T07:55:24;47011.91;;;-142.92;69.41
56456;BME280;42354;53.218;6.564;2023-02-13T07:57:50;47013.97;;;-142.92;69.36
56456;BME280;42354;53.218;6.564;2023-02-13T08:00:16;47011.91;;;-142.92;69.39
56456;BME280;42354;53.218;6.564;2023-02-13T08:02:42;47005.75;;;-142.92;69.17
56456;BME280;42354;53.218;6.564;2023-02-13T08:05:07;46997.53;;;-142.92;69.06
56456;BME280;42354;53.218;6.564;2023-02-13T08:07:33;47011.91;;;-142.92;69.01
56456;BME280;42354;53.218;6.564;2023-02-13T08:09:59;46987.28;;;-142.92;68.85
56456;BME280;42354;53.218;6.564;2023-02-13T08:12:43;47013.97;;;-142.92;68.81
56456;BME280;42354;53.218;6.564;2023-02-13T08:15:10;46997.53;;;-142.92;68.69
56456;BME280;42354;53.218;6.564;2023-02-13T08:17:36;46999.59;;;-142.92;68.53
56456;BME280;42354;53.218;6.564;2023-02-13T08:20:02;46985.22;;;-142.92;68.36
56456;BME280;42354;53.218;6.564;2023-02-13T08:22:27;47016.00;;;-142.92;68.42
56456;BME280;42354;53.218;6.564;2023-02-13T08:24:52;47001.66;;;-142.92;68.34
56456;BME280;42354;53.218;6.564;2023-02-13T08:27:18;47003.69;;;-142.92;68.18
56456;BME280;42354;53.218;6.564;2023-02-13T08:29:44;47003.69;;;-142.92;68.16
56456;BME280;42354;53.218;6.564;2023-02-13T08:32:09;46997.53;;;-142.92;68.07
56456;BME280;42354;53.218;6.564;2023-02-13T08:34:35;47016.00;;;-142.92;68.16
56456;BME280;42354;53.218;6.564;2023-02-13T08:37:01;47018.06;;;-142.92;67.97
56456;BME280;42354;53.218;6.564;2023-02-13T08:39:26;46989.34;;;-142.92;67.93
56456;BME280;42354;53.218;6.564;2023-02-13T08:41:52;47007.81;;;-142.92;68.00
56456;BME280;42354;53.218;6.564;2023-02-13T08:44:17;46997.53;;;-142.92;67.79
56456;BME280;42354;53.218;6.564;2023-02-13T08:46:42;47022.16;;;-142.92;67.77
56456;BME280;42354;53.218;6.564;2023-02-13T08:49:08;47001.66;;;-142.92;67.73
56456;BME280;42354;53.218;6.564;2023-02-13T08:51:33;47026.28;;;-142.92;67.81
56456;BME280;42354;53.218;6.564;2023-02-13T08:53:58;46999.59;;;-142.92;67.70
56456;BME280;42354;53.218;6.564;2023-02-13T08:56:24;46995.50;;;-142.92;67.89
56456;BME280;42354;53.218;6.564;2023-02-13T08:58:49;46999.59;;;-142.92;67.61
56456;BME280;42354;53.218;6.564;2023-02-13T09:01:15;46995.50;;;-142.92;67.68
56456;BME280;42354;53.218;6.564;2023-02-13T09:03:41;47020.13;;;-142.92;67.57
56456;BME280;42354;53.218;6.564;2023-02-13T09:06:06;47024.22;;;-142.92;67.80
56456;BME280;42354;53.218;6.564;2023-02-13T09:08:33;46993.44;;;-142.92;67.78
56456;BME280;42354;53.218;6.564;2023-02-13T09:11:01;47024.22;;;-142.92;67.42
56456;BME280;42354;53.218;6.564;2023-02-13T09:13:30;47005.75;;;-142.92;67.34
56456;BME280;42354;53.218;6.564;2023-02-13T09:16:00;47003.69;;;-142.92;67.46
56456;BME280;42354;53.218;6.564;2023-02-13T09:18:26;47009.84;;;-142.92;67.52
56456;BME280;42354;53.218;6.564;2023-02-13T09:23:23;47016.00;;;-142.92;67.37
56456;BME280;42354;53.218;6.564;2023-02-13T09:25:49;46987.28;;;-142.92;67.37
56456;BME280;42354;53.218;6.564;2023-02-13T09:28:14;47009.84;;;-142.92;67.44
56456;BME280;42354;53.218;6.564;2023-02-13T09:30:39;47024.22;;;-142.92;67.44
56456;BME280;42354;53.218;6.564;2023-02-13T09:33:09;47005.75;;;-142.92;67.34
56456;BME280;42354;53.218;6.564;2023-02-13T09:35:35;47018.06;;;-142.92;67.79
56456;BME280;42354;53.218;6.564;2023-02-13T09:38:01;47009.84;;;-142.92;67.76
56456;BME280;42354;53.218;6.564;2023-02-13T09:40:31;46987.28;;;-142.92;67.55
56456;BME280;42354;53.218;6.564;2023-02-13T09:43:34;47018.06;;;-142.92;67.35
56456;BME280;42354;53.218;6.564;2023-02-13T09:46:11;47007.81;;;-142.92;67.50
56456;BME280;42354;53.218;6.564;2023-02-13T09:48:40;46985.22;;;-142.92;67.41
56456;BME280;42354;53.218;6.564;2023-02-13T09:51:13;47022.16;;;-142.92;67.41
56456;BME280;42354;53.218;6.564;2023-02-13T09:53:39;47003.69;;;-142.92;67.67
56456;BME280;42354;53.218;6.564;2023-02-13T09:56:16;46987.28;;;-142.92;67.45
56456;BME280;42354;53.218;6.564;2023-02-13T09:58:49;47007.81;;;-142.92;67.54
56456;BME280;42354;53.218;6.564;2023-02-13T10:01:29;46995.50;;;-142.92;67.46
56456;BME280;42354;53.218;6.564;2023-02-13T10:04:30;46991.38;;;-142.92;67.35
56456;BME280;42354;53.218;6.564;2023-02-13T10:07:21;46997.53;;;-142.92;67.45
56456;BME280;42354;53.218;6.564;2023-02-13T10:15:47;47001.66;;;-142.92;66.65
56456;BME280;42354;53.218;6.564;2023-02-13T10:18:20;47003.69;;;-142.92;66.69
56456;BME280;42354;53.218;6.564;2023-02-13T10:20:52;47007.81;;;-142.92;66.76
56456;BME280;42354;53.218;6.564;2023-02-13T10:23:32;47003.69;;;-142.92;66.30
56456;BME280;42354;53.218;6.564;2023-02-13T10:26:10;47011.91;;;-142.92;66.43
56456;BME280;42354;53.218;6.564;2023-02-13T10:28:43;46997.53;;;-142.92;66.45
56456;BME280;42354;53.218;6.564;2023-02-13T10:31:16;47011.91;;;-142.92;66.18
56456;BME280;42354;53.218;6.564;2023-02-13T10:33:48;46997.53;;;-142.92;66.19
56456;BME280;42354;53.218;6.564;2023-02-13T10:36:21;47009.84;;;-142.92;65.93
56456;BME280;42354;53.218;6.564;2023-02-13T10:38:56;47018.06;;;-142.92;65.67
56456;BME280;42354;53.218;6.564;2023-02-13T10:53:18;47005.75;;;-142.92;65.52
56456;BME280;42354;53.218;6.564;2023-02-13T11:01:24;46987.28;;;-142.92;65.55
56456;BME280;42354;53.218;6.564;2023-02-13T11:04:12;46989.34;;;-142.92;65.32
56456;BME280;42354;53.218;6.564;2023-02-13T11:09:15;46995.50;;;-142.92;65.73
56456;BME280;42354;53.218;6.564;2023-02-13T11:11:41;47011.91;;;-142.92;65.94
56456;BME280;42354;53.218;6.564;2023-02-13T11:16:57;46989.34;;;-142.92;65.67
56456;BME280;42354;53.218;6.564;2023-02-13T11:19:38;47003.69;;;-142.92;65.78
56456;BME280;42354;53.218;6.564;2023-02-13T11:22:07;46997.53;;;-142.92;65.85
56456;BME280;42354;53.218;6.564;2023-02-13T11:24:35;47013.97;;;-142.92;66.03
56456;BME280;42354;53.218;6.564;2023-02-13T11:27:04;47003.69;;;-142.92;65.93
56456;BME280;42354;53.218;6.564;2023-02-13T11:29:36;47003.69;;;-142.92;65.83
56456;BME280;42354;53.218;6.564;2023-02-13T11:32:26;46999.59;;;-142.92;65.61
56456;BME280;42354;53.218;6.564;2023-02-13T11:34:52;47009.84;;;-142.92;65.81
56456;BME280;42354;53.218;6.564;2023-02-13T11:37:36;47003.69;;;-142.92;65.12
56456;BME280;42354;53.218;6.564;2023-02-13T11:40:27;47009.84;;;-142.92;65.07
56456;BME280;42354;53.218;6.564;2023-02-13T11:42:53;47011.91;;;-142.92;65.37
56456;BME280;42354;53.218;6.564;2023-02-13T11:45:20;46999.59;;;-142.92;65.29
56456;BME280;42354;53.218;6.564;2023-02-13T11:47:47;47022.16;;;-142.92;65.20
56456;BME280;42354;53.218;6.564;2023-02-13T11:50:26;46987.28;;;-142.92;64.70
56456;BME280;42354;53.218;6.564;2023-02-13T11:55:32;47007.81;;;-142.92;64.86
56456;BME280;42354;53.218;6.564;2023-02-13T11:58:03;47005.75;;;-142.92;64.86
56456;BME280;42354;53.218;6.564;2023-02-13T12:00:45;47022.16;;;-142.92;64.72
56456;BME280;42354;53.218;6.564;2023-02-13T12:08:36;46997.53;;;-142.92;64.96
56456;BME280;42354;53.218;6.564;2023-02-13T12:13:37;47011.91;;;-142.92;64.76
56456;BME280;42354;53.218;6.564;2023-02-13T12:19:17;46995.50;;;-142.92;64.75
56456;BME280;42354;53.218;6.564;2023-02-13T12:22:04;46999.59;;;-142.92;64.37
56456;BME280;42354;53.218;6.564;2023-02-13T12:24:54;47003.69;;;-142.92;64.33
56456;BME280;42354;53.218;6.564;2023-02-13T12:46:30;47013.97;;;-142.92;63.98
56456;BME280;42354;53.218;6.564;2023-02-13T13:00:21;47007.81;;;-142.92;64.28
56456;BME280;42354;53.218;6.564;2023-02-13T13:03:02;47009.84;;;-142.92;64.04
56456;BME280;42354;53.218;6.564;2023-02-13T13:06:01;47001.66;;;-142.92;63.70
56456;BME280;42354;53.218;6.564;2023-02-13T13:27:43;46999.59;;;-142.92;64.15
56456;BME280;42354;53.218;6.564;2023-02-13T13:30:31;47024.22;;;-142.92;64.11
56456;BME280;42354;53.218;6.564;2023-02-13T13:33:02;47016.00;;;-142.92;64.35
56456;BME280;42354;53.218;6.564;2023-02-13T13:35:30;47007.81;;;-142.92;64.11
56456;BME280;42354;53.218;6.564;2023-02-13T13:49:35;46997.53;;;-142.92;64.04
56456;BME280;42354;53.218;6.564;2023-02-13T13:51:29;46987.28;;;-142.92;64.31
56456;BME280;42354;53.218;6.564;2023-02-13T14:07:23;47003.69;;;-142.92;64.21
56456;BME280;42354;53.218;6.564;2023-02-13T14:09:48;46995.50;;;-142.92;64.41
56456;BME280;42354;53.218;6.564;2023-02-13T14:14:48;46995.50;;;-142.92;64.35
56456;BME280;42354;53.218;6.564;2023-02-13T14:17:15;47001.66;;;-142.92;64.37
56456;BME280;42354;53.218;6.564;2023-02-13T14:19:46;47003.69;;;-142.92;64.09
56456;BME280;42354;53.218;6.564;2023-02-13T14:24:54;47005.75;;;-142.92;64.76
56456;BME280;42354;53.218;6.564;2023-02-13T14:27:22;47011.91;;;-142.92;65.01
56456;BME280;42354;53.218;6.564;2023-02-13T14:29:49;46999.59;;;-142.92;65.37
56456;BME280;42354;53.218;6.564;2023-02-13T14:32:18;46999.59;;;-142.92;65.39
56456;BME280;42354;53.218;6.564;2023-02-13T14:34:52;46995.50;;;-142.92;65.51
56456;BME280;42354;53.218;6.564;2023-02-13T14:37:27;47020.13;;;-142.92;65.50
56456;BME280;42354;53.218;6.564;2023-02-13T14:42:44;46989.34;;;-142.92;66.07
56456;BME280;42354;53.218;6.564;2023-02-13T14:45:19;46995.50;;;-142.92;66.17
56456;BME280;42354;53.218;6.564;2023-02-13T14:47:49;46995.50;;;-142.92;66.36
56456;BME280;42354;53.218;6.564;2023-02-13T14:50:26;47007.81;;;-142.92;66.81
56456;BME280;42354;53.218;6.564;2023-02-13T14:52:54;46993.44;;;-142.92;66.85
56456;BME280;42354;53.218;6.564;2023-02-13T14:55:34;47007.81;;;-142.92;66.76
56456;BME280;42354;53.218;6.564;2023-02-13T14:58:07;47007.81;;;-142.92;67.13
56456;BME280;42354;53.218;6.564;2023-02-13T15:00:55;47001.66;;;-142.92;67.06
56456;BME280;42354;53.218;6.564;2023-02-13T15:03:35;46999.59;;;-142.92;67.71
56456;BME280;42354;53.218;6.564;2023-02-13T15:06:04;46999.59;;;-142.92;67.49
56456;BME280;42354;53.218;6.564;2023-02-13T15:08:39;47003.69;;;-142.92;67.62
56456;BME280;42354;53.218;6.564;2023-02-13T15:11:07;46991.38;;;-142.92;67.68
56456;BME280;42354;53.218;6.564;2023-02-13T15:13:52;47011.91;;;-142.92;67.85
56456;BME280;42354;53.218;6.564;2023-02-13T15:16:17;46993.44;;;-142.92;67.98
56456;BME280;42354;53.218;6.564;2023-02-13T15:18:50;47005.75;;;-142.92;67.98
56456;BME280;42354;53.218;6.564;2023-02-13T15:21:22;47018.06;;;-142.92;68.11
56456;BME280;42354;53.218;6.564;2023-02-13T15:23:53;47005.75;;;-142.92;68.54
56456;BME280;42354;53.218;6.564;2023-02-13T15:26:22;47013.97;;;-142.92;68.70
56456;BME280;42354;53.218;6.564;2023-02-13T15:29:02;47026.28;;;-142.92;68.85
56456;BME280;42354;53.218;6.564;2023-02-13T15:31:30;47011.91;;;-142.92;69.05
56456;BME280;42354;53.218;6.564;2023-02-13T15:33:58;47018.06;;;-142.92;69.29
56456;BME280;42354;53.218;6.564;2023-02-13T15:36:25;47003.69;;;-142.92;69.72